Time;durP1;ratioP1;P1;durP2;ratioP2;P2;SDS_P1;SDS_P2;PMS_P1;PMS_P2;Temp;Humidity;BMP_temperature;BMP_pressure;BME280_temperature;BME280_humidity;BME280_pressure;Samples;Min_cycle;Max_cycle;Signal;HPM_P1;HPM_P2
2022/05/11 00:01:40;;;;;;;1.23;1.00;;;;;;;;;;5043799;28;20031;-78
2022/05/11 00:04:07;;;;;;;3.58;1.55;;;;;;;;;;5045780;28;20049;-78
2022/05/11 00:06:33;;;;;;;1.60;1.02;;;;;;;;;;5044499;28;20033;-77
2022/05/11 00:08:59;;;;;;;2.25;1.35;;;;;;;;;;5046722;28;20039;-78
2022/05/11 00:11:27;;;;;;;0.63;0.63;;;;;;;;;;5047711;28;20451;-78
2022/05/11 00:13:53;;;;;;;1.85;0.95;;;;;;;;;;5047160;28;20037;-79
2022/05/11 00:16:19;;;;;;;0.40;0.40;;;;;;;;;;5046626;28;20032;-77
2022/05/11 00:18:45;;;;;;;1.85;1.38;;;;;;;;;;5038714;28;20048;-78
2022/05/11 00:21:11;;;;;;;0.82;0.82;;;;;;;;;;5045333;28;20087;-78
2022/05/11 00:23:38;;;;;;;0.93;0.90;;;;;;;;;;5046698;28;20032;-78
2022/05/11 00:26:04;;;;;;;1.65;0.90;;;;;;;;;;5048206;28;20021;-78
2022/05/11 00:28:30;;;;;;;1.13;1.02;;;;;;;;;;5046168;28;20032;-77
2022/05/11 00:30:56;;;;;;;1.10;0.68;;;;;;;;;;5047616;28;20025;-77
2022/05/11 00:33:22;;;;;;;0.68;0.68;;;;;;;;;;5048061;28;20472;-77
2022/05/11 00:35:49;;;;;;;0.82;0.52;;;;;;;;;;5047333;28;20021;-78
2022/05/11 00:38:16;;;;;;;1.35;1.05;;;;;;;;;;5046877;28;20044;-77
2022/05/11 00:40:46;;;;;;;0.52;0.52;;;;;;;;;;5043156;28;20040;-78
2022/05/11 00:43:12;;;;;;;0.63;0.63;;;;;;;;;;5040989;28;20048;-78
2022/05/11 00:45:39;;;;;;;0.45;0.45;;;;;;;;;;5047456;28;20040;-78
2022/05/11 00:49:33;;;;;;;0.65;0.65;;;;;;;;;;5042653;28;20021;-78
2022/05/11 00:50:53;;;;;;;0.40;0.40;;;;;;;;;;5045841;28;20131;-78
2022/05/11 00:53:19;;;;;;;0.47;0.43;;;;;;;;;;5048823;28;20021;-78
2022/05/11 00:55:51;;;;;;;1.60;0.95;;;;;;;;;;5038177;28;20036;-78
2022/05/11 00:58:20;;;;;;;6.78;2.38;;;;;;;;;;5047201;28;20025;-78
2022/05/11 01:00:46;;;;;;;0.85;0.60;;;;;;;;;;5049677;28;20028;-78
2022/05/11 01:03:15;;;;;;;0.20;0.20;;;;;;;;;;5049377;28;20028;-78
2022/05/11 01:05:42;;;;;;;0.28;0.28;;;;;;;;;;5049091;28;20103;-78
2022/05/11 01:08:08;;;;;;;8.88;1.40;;;;;;;;;;5045597;28;20372;-80
2022/05/11 01:10:34;;;;;;;0.50;0.50;;;;;;;;;;5051450;28;20044;-78
2022/05/11 01:13:02;;;;;;;0.40;0.38;;;;;;;;;;5048278;28;20021;-78
2022/05/11 01:15:30;;;;;;;1.05;0.82;;;;;;;;;;5042910;28;20468;-79
2022/05/11 01:17:57;;;;;;;0.35;0.35;;;;;;;;;;5047589;28;20026;-79
2022/05/11 01:20:24;;;;;;;1.10;0.75;;;;;;;;;;5050893;28;20028;-79
2022/05/11 01:23:00;;;;;;;2.47;0.95;;;;;;;;;;5050211;28;20037;-79
2022/05/11 01:25:26;;;;;;;0.52;0.50;;;;;;;;;;5051101;28;20135;-79
2022/05/11 01:28:00;;;;;;;0.85;0.43;;;;;;;;;;5049881;28;20128;-77
2022/05/11 01:30:26;;;;;;;1.25;0.63;;;;;;;;;;5040684;28;20035;-79
2022/05/11 01:32:53;;;;;;;1.88;0.40;;;;;;;;;;5048952;28;20024;-78
2022/05/11 01:35:25;;;;;;;1.00;0.82;;;;;;;;;;5050511;28;20040;-79
2022/05/11 01:37:59;;;;;;;2.58;0.68;;;;;;;;;;5045347;28;20083;-78
2022/05/11 01:40:25;;;;;;;0.47;0.45;;;;;;;;;;5048306;28;20033;-78
2022/05/11 01:42:51;;;;;;;0.40;0.40;;;;;;;;;;5050460;28;20112;-79
2022/05/11 01:45:17;;;;;;;0.45;0.45;;;;;;;;;;5048739;28;20048;-78
2022/05/11 01:47:43;;;;;;;1.95;1.17;;;;;;;;;;5051391;28;20202;-79
2022/05/11 01:50:09;;;;;;;0.50;0.47;;;;;;;;;;5038859;28;20041;-77
2022/05/11 01:52:35;;;;;;;0.70;0.70;;;;;;;;;;5042548;28;20037;-80
2022/05/11 01:55:01;;;;;;;1.10;1.02;;;;;;;;;;5045410;28;20376;-77
2022/05/11 01:57:27;;;;;;;1.50;1.40;;;;;;;;;;5051236;28;20078;-77
2022/05/11 01:59:53;;;;;;;3.00;1.52;;;;;;;;;;5050645;28;20387;-78
2022/05/11 02:02:19;;;;;;;0.68;0.40;;;;;;;;;;5045922;28;20028;-78
2022/05/11 02:10:14;;;;;;;2.38;0.82;;;;;;;;;;5036095;28;20461;-78
2022/05/11 02:12:41;;;;;;;0.50;0.50;;;;;;;;;;5046451;28;20047;-78
2022/05/11 02:15:08;;;;;;;0.50;0.50;;;;;;;;;;5046476;28;20033;-77
2022/05/11 02:17:34;;;;;;;2.00;0.98;;;;;;;;;;5050100;28;20051;-77
2022/05/11 02:20:00;;;;;;;2.50;1.25;;;;;;;;;;5049565;28;20021;-77
2022/05/11 02:22:26;;;;;;;0.50;0.50;;;;;;;;;;5049464;28;20025;-77
2022/05/11 02:24:51;;;;;;;4.65;1.30;;;;;;;;;;5048441;28;20124;-77
2022/05/11 02:27:17;;;;;;;2.40;0.60;;;;;;;;;;5050485;28;20024;-78
2022/05/11 02:29:43;;;;;;;0.98;0.88;;;;;;;;;;5050342;28;20083;-78
2022/05/11 02:32:09;;;;;;;0.93;0.57;;;;;;;;;;5049397;28;20030;-78
2022/05/11 02:37:19;;;;;;;0.60;0.47;;;;;;;;;;5043372;28;20028;-78
2022/05/11 02:39:46;;;;;;;1.15;1.05;;;;;;;;;;5050871;28;20029;-78
2022/05/11 02:42:12;;;;;;;3.53;0.70;;;;;;;;;;5049513;28;20060;-77
2022/05/11 02:44:38;;;;;;;1.65;1.45;;;;;;;;;;5049933;28;20045;-78
2022/05/11 02:47:04;;;;;;;1.10;1.10;;;;;;;;;;5049337;28;20064;-77
2022/05/11 02:49:30;;;;;;;0.68;0.60;;;;;;;;;;5050089;28;20129;-78
2022/05/11 02:51:58;;;;;;;1.30;1.13;;;;;;;;;;5039680;28;20056;-78
2022/05/11 02:54:24;;;;;;;0.47;0.47;;;;;;;;;;5048515;28;20438;-78
2022/05/11 02:56:50;;;;;;;1.13;1.08;;;;;;;;;;5048491;28;20399;-78
2022/05/11 02:59:19;;;;;;;2.72;0.80;;;;;;;;;;5044279;28;20033;-78
2022/05/11 03:01:44;;;;;;;0.70;0.57;;;;;;;;;;5048848;28;20025;-77
2022/05/11 03:04:10;;;;;;;2.20;0.75;;;;;;;;;;5047071;28;20511;-77
2022/05/11 03:06:36;;;;;;;0.93;0.80;;;;;;;;;;5048501;28;20025;-77
2022/05/11 03:09:02;;;;;;;0.60;0.57;;;;;;;;;;5043969;28;20760;-78
2022/05/11 03:11:28;;;;;;;1.50;1.00;;;;;;;;;;5036060;28;20505;-77
2022/05/11 03:13:54;;;;;;;0.60;0.60;;;;;;;;;;5047204;28;20090;-77
2022/05/11 03:16:20;;;;;;;1.08;1.02;;;;;;;;;;5048678;28;20032;-77
2022/05/11 03:18:47;;;;;;;0.20;0.20;;;;;;;;;;5048839;28;20049;-78
2022/05/11 03:21:13;;;;;;;0.88;0.57;;;;;;;;;;5045609;28;20029;-78
2022/05/11 03:23:39;;;;;;;1.13;1.13;;;;;;;;;;5047915;28;20025;-78
2022/05/11 03:26:05;;;;;;;0.70;0.70;;;;;;;;;;5048267;28;20037;-78
2022/05/11 03:28:31;;;;;;;0.60;0.60;;;;;;;;;;5040278;28;20075;-78
2022/05/11 03:30:57;;;;;;;0.73;0.70;;;;;;;;;;5044475;28;20025;-78
2022/05/11 03:36:08;;;;;;;1.20;1.10;;;;;;;;;;5047780;28;20043;-78
2022/05/11 03:38:34;;;;;;;1.33;0.70;;;;;;;;;;5037908;28;20025;-77
2022/05/11 03:40:59;;;;;;;0.82;0.82;;;;;;;;;;5046885;28;20028;-77
2022/05/11 03:43:25;;;;;;;3.55;1.88;;;;;;;;;;5048078;28;20515;-78
2022/05/11 03:45:51;;;;;;;1.00;0.90;;;;;;;;;;5040745;28;20031;-78
2022/05/11 03:48:17;;;;;;;1.05;1.02;;;;;;;;;;5045472;28;20112;-78
2022/05/11 03:50:43;;;;;;;1.35;1.05;;;;;;;;;;5045633;28;20479;-78
2022/05/11 03:53:09;;;;;;;1.25;0.98;;;;;;;;;;5047831;28;20447;-78
2022/05/11 03:55:35;;;;;;;1.30;1.00;;;;;;;;;;5046200;28;20024;-78
2022/05/11 03:58:01;;;;;;;1.30;0.88;;;;;;;;;;5047759;28;20036;-78
2022/05/11 04:00:27;;;;;;;0.63;0.63;;;;;;;;;;5043752;28;20029;-78
2022/05/11 04:02:54;;;;;;;1.40;0.98;;;;;;;;;;5046593;28;20078;-77
2022/05/11 04:05:20;;;;;;;1.15;1.05;;;;;;;;;;5046221;28;20512;-78
2022/05/11 04:07:46;;;;;;;0.45;0.45;;;;;;;;;;5047461;28;20025;-77
2022/05/11 04:10:13;;;;;;;1.27;0.88;;;;;;;;;;5047534;28;20036;-78
2022/05/11 04:12:39;;;;;;;10.95;2.15;;;;;;;;;;5038907;28;20044;-77
2022/05/11 04:15:06;;;;;;;2.33;2.13;;;;;;;;;;5047884;28;20055;-78
2022/05/11 04:17:32;;;;;;;1.25;1.13;;;;;;;;;;5047916;28;20115;-77
2022/05/11 04:19:58;;;;;;;1.23;1.13;;;;;;;;;;5048463;28;20096;-77
2022/05/11 04:22:24;;;;;;;2.50;1.27;;;;;;;;;;5048635;28;20391;-77
2022/05/11 04:24:49;;;;;;;1.17;1.08;;;;;;;;;;5047539;28;20034;-77
2022/05/11 04:27:15;;;;;;;0.98;0.77;;;;;;;;;;5046827;28;20047;-78
2022/05/11 04:29:42;;;;;;;1.10;0.43;;;;;;;;;;5046422;28;20029;-78
2022/05/11 04:32:10;;;;;;;1.85;1.05;;;;;;;;;;5048121;28;20021;-77
2022/05/11 04:34:38;;;;;;;2.47;1.13;;;;;;;;;;5045874;28;20044;-77
2022/05/11 04:37:04;;;;;;;1.02;1.02;;;;;;;;;;5044290;28;20434;-78
2022/05/11 04:39:30;;;;;;;1.27;1.02;;;;;;;;;;5051064;28;20029;-77
2022/05/11 04:41:57;;;;;;;1.42;0.60;;;;;;;;;;5052392;28;20796;-77
2022/05/11 04:44:23;;;;;;;1.30;1.20;;;;;;;;;;5048769;28;20016;-78
2022/05/11 04:46:49;;;;;;;1.10;0.80;;;;;;;;;;5051661;28;20612;-77
2022/05/11 04:49:16;;;;;;;0.77;0.77;;;;;;;;;;5052120;28;20103;-77
2022/05/11 04:51:43;;;;;;;2.53;1.52;;;;;;;;;;5047040;28;20549;-77
2022/05/11 04:54:09;;;;;;;0.77;0.77;;;;;;;;;;5050733;28;20028;-77
2022/05/11 04:56:34;;;;;;;0.90;0.47;;;;;;;;;;5048113;28;20394;-77
2022/05/11 04:59:01;;;;;;;1.35;1.25;;;;;;;;;;5051448;28;20384;-76
2022/05/11 05:01:27;;;;;;;0.93;0.93;;;;;;;;;;5050163;28;20553;-76
2022/05/11 05:03:53;;;;;;;2.30;1.13;;;;;;;;;;5045160;28;20049;-76
2022/05/11 05:06:19;;;;;;;0.80;0.70;;;;;;;;;;5048814;28;20032;-76
2022/05/11 05:08:45;;;;;;;1.67;1.58;;;;;;;;;;5051142;28;20475;-78
2022/05/11 05:11:12;;;;;;;0.75;0.75;;;;;;;;;;5046351;28;20043;-80
2022/05/11 05:13:38;;;;;;;1.50;1.33;;;;;;;;;;5050910;28;20021;-81
2022/05/11 05:16:04;;;;;;;2.80;1.40;;;;;;;;;;5051113;28;20365;-85
2022/05/11 05:18:32;;;;;;;1.52;0.98;;;;;;;;;;5051496;28;20133;-79
2022/05/11 05:20:58;;;;;;;0.98;0.95;;;;;;;;;;5045114;28;20025;-77
2022/05/11 05:23:24;;;;;;;1.33;1.23;;;;;;;;;;5044519;28;20029;-77
2022/05/11 05:25:50;;;;;;;1.35;1.25;;;;;;;;;;5044075;28;20029;-78
2022/05/11 05:31:05;;;;;;;4.85;1.80;;;;;;;;;;5049175;28;20067;-78
2022/05/11 05:33:33;;;;;;;0.85;0.80;;;;;;;;;;5046571;28;20033;-77
2022/05/11 05:35:59;;;;;;;0.60;0.60;;;;;;;;;;5049838;28;20032;-76
2022/05/11 05:38:25;;;;;;;4.00;1.10;;;;;;;;;;5047057;28;20029;-76
2022/05/11 05:40:51;;;;;;;1.45;1.33;;;;;;;;;;5049776;28;20017;-77
2022/05/11 05:43:17;;;;;;;1.20;0.95;;;;;;;;;;5043705;28;20028;-78
2022/05/11 05:45:47;;;;;;;1.75;1.38;;;;;;;;;;5049691;28;20052;-80
2022/05/11 05:48:13;;;;;;;2.88;1.95;;;;;;;;;;5046246;28;20452;-76
2022/05/11 05:50:39;;;;;;;1.88;1.77;;;;;;;;;;5049406;28;20140;-79
2022/05/11 05:53:05;;;;;;;2.45;1.27;;;;;;;;;;5049420;28;20124;-76
2022/05/11 05:55:31;;;;;;;3.17;1.10;;;;;;;;;;5045431;28;20041;-76
2022/05/11 05:57:57;;;;;;;3.00;1.77;;;;;;;;;;5049592;28;20032;-77
2022/05/11 06:00:23;;;;;;;3.15;1.40;;;;;;;;;;5042376;28;20051;-77
2022/05/11 06:02:49;;;;;;;2.85;1.45;;;;;;;;;;5041459;28;20040;-77
2022/05/11 06:05:15;;;;;;;2.55;1.50;;;;;;;;;;5047816;28;20053;-78
2022/05/11 06:07:41;;;;;;;3.40;2.20;;;;;;;;;;5046866;28;20052;-77
2022/05/11 06:10:07;;;;;;;3.05;2.03;;;;;;;;;;5047452;28;20431;-78
2022/05/11 06:12:33;;;;;;;2.45;1.15;;;;;;;;;;5045721;28;20027;-77
2022/05/11 06:14:59;;;;;;;1.77;1.65;;;;;;;;;;5045744;28;20029;-78
2022/05/11 06:17:25;;;;;;;3.00;0.80;;;;;;;;;;5040086;28;20045;-78
2022/05/11 06:19:52;;;;;;;2.95;1.52;;;;;;;;;;5049897;28;20272;-78
2022/05/11 06:22:18;;;;;;;3.20;2.17;;;;;;;;;;5050637;28;20121;-77
2022/05/11 06:24:44;;;;;;;7.28;1.88;;;;;;;;;;5050847;28;20033;-79
2022/05/11 06:27:15;;;;;;;0.80;0.80;;;;;;;;;;5049678;28;20395;-78
2022/05/11 06:29:41;;;;;;;1.10;1.08;;;;;;;;;;5046017;28;20403;-78
2022/05/11 06:32:07;;;;;;;4.03;2.28;;;;;;;;;;5050794;28;20024;-78
2022/05/11 06:34:33;;;;;;;0.93;0.82;;;;;;;;;;5049448;28;20036;-77
2022/05/11 06:36:59;;;;;;;1.67;1.58;;;;;;;;;;5035211;28;20439;-78
2022/05/11 06:39:25;;;;;;;1.45;1.35;;;;;;;;;;5039218;28;20561;-78
2022/05/11 06:41:51;;;;;;;1.67;1.58;;;;;;;;;;5049950;28;20025;-78
2022/05/11 06:44:17;;;;;;;1.83;1.40;;;;;;;;;;5049107;28;20162;-78
2022/05/11 06:46:44;;;;;;;6.22;1.35;;;;;;;;;;5048096;28;20084;-78
2022/05/11 06:49:10;;;;;;;3.15;2.13;;;;;;;;;;5048257;28;20056;-77
2022/05/11 06:51:36;;;;;;;1.65;1.55;;;;;;;;;;5050256;28;20515;-77
2022/05/11 06:59:33;;;;;;;1.42;1.20;;;;;;;;;;5050162;28;20070;-76
2022/05/11 07:02:03;;;;;;;1.40;1.30;;;;;;;;;;5045299;28;20021;-78
2022/05/11 07:04:29;;;;;;;2.33;1.65;;;;;;;;;;5045075;28;20178;-76
2022/05/11 07:06:55;;;;;;;0.60;0.60;;;;;;;;;;5047865;28;20067;-76
2022/05/11 07:09:22;;;;;;;0.70;0.70;;;;;;;;;;5044170;28;20028;-76
2022/05/11 07:14:36;;;;;;;0.88;0.85;;;;;;;;;;5048649;28;20612;-76
2022/05/11 07:17:02;;;;;;;1.02;1.00;;;;;;;;;;5033229;28;20021;-75
2022/05/11 07:19:28;;;;;;;0.88;0.70;;;;;;;;;;5036514;28;20029;-76
2022/05/11 07:21:54;;;;;;;2.58;2.08;;;;;;;;;;5047743;28;20028;-76
2022/05/11 07:24:20;;;;;;;1.13;1.02;;;;;;;;;;5049149;28;20032;-76
2022/05/11 07:26:46;;;;;;;1.00;0.80;;;;;;;;;;5046335;28;20607;-79
2022/05/11 07:29:13;;;;;;;1.63;1.27;;;;;;;;;;5043764;28;20098;-77
2022/05/11 07:31:39;;;;;;;4.60;1.98;;;;;;;;;;5048097;28;20028;-78
2022/05/11 07:34:05;;;;;;;1.05;0.90;;;;;;;;;;5048108;28;20116;-75
2022/05/11 07:36:31;;;;;;;1.23;1.17;;;;;;;;;;5049157;28;20025;-75
2022/05/11 07:38:58;;;;;;;0.50;0.50;;;;;;;;;;5046897;28;20020;-76
2022/05/11 07:41:24;;;;;;;1.20;1.05;;;;;;;;;;5042736;28;20132;-75
2022/05/11 07:43:50;;;;;;;1.05;0.88;;;;;;;;;;5045861;28;20599;-76
2022/05/11 07:46:16;;;;;;;0.57;0.55;;;;;;;;;;5047729;28;20021;-78
2022/05/11 07:48:42;;;;;;;7.03;0.88;;;;;;;;;;5052911;28;20163;-76
2022/05/11 07:51:08;;;;;;;1.42;1.27;;;;;;;;;;5046725;28;20503;-76
2022/05/11 07:53:34;;;;;;;0.80;0.80;;;;;;;;;;5044311;28;20130;-77
2022/05/11 08:01:29;;;;;;;0.98;0.93;;;;;;;;;;5047272;28;20101;-75
2022/05/11 08:03:55;;;;;;;1.42;0.82;;;;;;;;;;5039101;28;20041;-75
2022/05/11 08:06:21;;;;;;;1.05;0.73;;;;;;;;;;5039794;28;20479;-75
2022/05/11 08:08:47;;;;;;;0.95;0.95;;;;;;;;;;5039389;28;20028;-76
2022/05/11 08:11:13;;;;;;;1.90;1.38;;;;;;;;;;5044386;28;20037;-76
2022/05/11 08:13:39;;;;;;;2.47;1.33;;;;;;;;;;5054284;28;20491;-76
2022/05/11 08:16:05;;;;;;;1.10;1.05;;;;;;;;;;5048019;28;20041;-77
2022/05/11 08:18:31;;;;;;;5.50;1.45;;;;;;;;;;5055059;28;20024;-76
2022/05/11 08:20:57;;;;;;;2.65;1.15;;;;;;;;;;5046229;28;20151;-76
2022/05/11 08:23:23;;;;;;;1.15;0.70;;;;;;;;;;5046852;28;20115;-80
2022/05/11 08:25:52;;;;;;;1.75;1.13;;;;;;;;;;5040118;28;20025;-78
2022/05/11 08:28:21;;;;;;;0.40;0.40;;;;;;;;;;5051148;28;20029;-77
2022/05/11 08:33:34;;;;;;;1.13;0.63;;;;;;;;;;5044811;28;20510;-76
2022/05/11 08:36:02;;;;;;;0.40;0.40;;;;;;;;;;5048645;28;20691;-74
2022/05/11 08:38:29;;;;;;;1.13;0.95;;;;;;;;;;5048961;28;20021;-74
2022/05/11 08:41:26;;;;;;;0.80;0.60;;;;;;;;;;5047597;28;20569;-75
2022/05/11 08:43:53;;;;;;;2.28;1.75;;;;;;;;;;5033962;28;20062;-75
2022/05/11 08:46:22;;;;;;;0.32;0.32;;;;;;;;;;5045153;28;20543;-75
2022/05/11 08:48:59;;;;;;;0.82;0.80;;;;;;;;;;5039940;28;20037;-74
2022/05/11 08:51:30;;;;;;;1.00;0.95;;;;;;;;;;5043863;28;20029;-75
2022/05/11 08:54:15;;;;;;;0.57;0.57;;;;;;;;;;5045863;28;20025;-78
2022/05/11 08:56:42;;;;;;;1.73;0.93;;;;;;;;;;5038776;28;20052;-77
2022/05/11 08:59:11;;;;;;;1.17;1.02;;;;;;;;;;5044936;28;20036;-78
2022/05/11 09:01:45;;;;;;;1.27;1.17;;;;;;;;;;5044004;28;20443;-79
2022/05/11 09:04:13;;;;;;;1.23;0.82;;;;;;;;;;5043443;28;20041;-79
2022/05/11 09:06:43;;;;;;;1.80;1.63;;;;;;;;;;5044212;28;20415;-78
2022/05/11 09:09:09;;;;;;;1.23;1.00;;;;;;;;;;5048648;28;20021;-78
2022/05/11 09:11:40;;;;;;;0.55;0.55;;;;;;;;;;5039635;28;20643;-78
2022/05/11 09:14:07;;;;;;;0.65;0.65;;;;;;;;;;5048142;28;20025;-79
2022/05/11 09:16:39;;;;;;;1.85;1.23;;;;;;;;;;5037568;28;20033;-80
2022/05/11 09:19:11;;;;;;;1.83;1.15;;;;;;;;;;5033454;28;20664;-79
2022/05/11 09:21:38;;;;;;;2.45;1.58;;;;;;;;;;5040858;28;20033;-78
2022/05/11 09:24:10;;;;;;;2.08;1.35;;;;;;;;;;5047530;28;20017;-79
2022/05/11 09:26:37;;;;;;;6.85;1.63;;;;;;;;;;5032822;28;20037;-79
2022/05/11 09:29:20;;;;;;;1.33;1.23;;;;;;;;;;5044431;28;20475;-77
2022/05/11 09:31:48;;;;;;;0.90;0.85;;;;;;;;;;5041227;28;20116;-81
2022/05/11 09:34:23;;;;;;;2.08;1.63;;;;;;;;;;5050322;28;20032;-80
2022/05/11 09:36:55;;;;;;;1.50;1.23;;;;;;;;;;5043026;28;20025;-78
2022/05/11 09:39:21;;;;;;;0.88;0.88;;;;;;;;;;5041503;28;20040;-77
2022/05/11 09:41:49;;;;;;;7.50;1.13;;;;;;;;;;5035728;28;20160;-79
2022/05/11 09:44:17;;;;;;;1.00;0.93;;;;;;;;;;5047311;28;20032;-78
2022/05/11 09:46:43;;;;;;;4.00;2.28;;;;;;;;;;5046189;28;20392;-78
2022/05/11 09:49:24;;;;;;;2.13;1.90;;;;;;;;;;5046165;28;20029;-77
2022/05/11 09:51:54;;;;;;;1.35;1.02;;;;;;;;;;5046832;28;20708;-78
2022/05/11 09:54:20;;;;;;;1.67;1.00;;;;;;;;;;5049835;28;20044;-78
2022/05/11 09:56:46;;;;;;;2.45;2.05;;;;;;;;;;5045990;28;20033;-78
2022/05/11 09:59:17;;;;;;;2.00;1.58;;;;;;;;;;5049913;28;20028;-77
2022/05/11 10:01:43;;;;;;;1.83;1.48;;;;;;;;;;5044464;28;20029;-78
2022/05/11 10:04:10;;;;;;;5.43;1.55;;;;;;;;;;5040899;28;20056;-78
2022/05/11 10:06:42;;;;;;;1.92;1.52;;;;;;;;;;5041091;28;20056;-78
2022/05/11 10:09:09;;;;;;;1.42;0.95;;;;;;;;;;5042701;28;20563;-78
2022/05/11 10:11:40;;;;;;;1.77;1.30;;;;;;;;;;5044758;28;20443;-78
2022/05/11 10:22:33;;;;;;;1.52;1.42;;;;;;;;;;5039134;28;21069;-78
2022/05/11 10:25:13;;;;;;;1.65;1.50;;;;;;;;;;5038713;28;20021;-79
2022/05/11 10:27:44;;;;;;;1.02;1.00;;;;;;;;;;5030724;28;20021;-78
2022/05/11 10:30:13;;;;;;;1.55;1.20;;;;;;;;;;5030515;28;20026;-81
2022/05/11 10:32:57;;;;;;;0.80;0.55;;;;;;;;;;5033832;28;20399;-79
2022/05/11 10:35:46;;;;;;;1.55;0.95;;;;;;;;;;5048164;28;20087;-79
2022/05/11 10:38:31;;;;;;;1.75;1.38;;;;;;;;;;5044025;28;20132;-80
2022/05/11 10:41:03;;;;;;;2.42;0.93;;;;;;;;;;5042843;28;20076;-80
2022/05/11 10:43:38;;;;;;;1.27;1.10;;;;;;;;;;5045403;28;20024;-80
2022/05/11 10:46:11;;;;;;;2.30;2.08;;;;;;;;;;5049288;28;20024;-79
2022/05/11 10:48:51;;;;;;;4.18;1.83;;;;;;;;;;5037278;28;20033;-80
2022/05/11 10:51:37;;;;;;;0.90;0.88;;;;;;;;;;5041545;28;20032;-79
2022/05/11 10:54:15;;;;;;;0.90;0.90;;;;;;;;;;5047235;28;20051;-80
2022/05/11 10:56:50;;;;;;;4.10;0.85;;;;;;;;;;5049797;28;20036;-79
2022/05/11 10:59:25;;;;;;;3.03;1.08;;;;;;;;;;5048210;28;20025;-79
2022/05/11 11:02:10;;;;;;;1.05;1.05;;;;;;;;;;5031501;28;20017;-79
2022/05/11 11:04:55;;;;;;;2.50;0.93;;;;;;;;;;5036559;28;20052;-79
2022/05/11 11:07:31;;;;;;;0.90;0.75;;;;;;;;;;5040481;28;20028;-79
2022/05/11 11:10:23;;;;;;;2.78;1.73;;;;;;;;;;5043764;28;20128;-78
2022/05/11 11:13:13;;;;;;;1.48;1.23;;;;;;;;;;5029295;28;20040;-79
2022/05/11 11:15:42;;;;;;;0.82;0.68;;;;;;;;;;5041798;28;20027;-79
2022/05/11 11:18:09;;;;;;;1.75;1.30;;;;;;;;;;5046569;28;20029;-80
2022/05/11 11:20:37;;;;;;;1.65;1.40;;;;;;;;;;5033108;28;20033;-79
2022/05/11 11:23:05;;;;;;;1.20;1.10;;;;;;;;;;5031426;28;20700;-79
2022/05/11 11:25:51;;;;;;;4.10;1.58;;;;;;;;;;5049456;28;20024;-78
2022/05/11 11:28:17;;;;;;;26.08;1.40;;;;;;;;;;5047588;28;20395;-79
2022/05/11 11:30:58;;;;;;;1.95;0.85;;;;;;;;;;5046703;28;20716;-79
2022/05/11 11:33:24;;;;;;;;;;;;;;;;;;5048183;28;20029;-80
2022/05/11 11:35:58;;;;;;;4.15;1.27;;;;;;;;;;5048777;28;19908;-78
2022/05/11 11:38:28;;;;;;;1.75;1.20;;;;;;;;;;5043503;28;20032;-79
2022/05/11 11:41:11;;;;;;;1.13;1.03;;;;;;;;;;5028974;28;20979;-78
2022/05/11 11:43:46;;;;;;;6.15;1.05;;;;;;;;;;5038063;28;21010;-79
2022/05/11 11:46:29;;;;;;;2.08;1.63;;;;;;;;;;5048598;28;20033;-80
2022/05/11 11:49:22;;;;;;;0.73;0.73;;;;;;;;;;5045679;28;20161;-80
2022/05/11 11:51:54;;;;;;;1.08;0.98;;;;;;;;;;5018303;28;20448;-78
2022/05/11 11:54:42;;;;;;;1.40;1.30;;;;;;;;;;5046938;28;20040;-80
2022/05/11 11:57:26;;;;;;;0.40;0.40;;;;;;;;;;5049229;28;20025;-79
2022/05/11 11:59:53;;;;;;;2.00;1.30;;;;;;;;;;5049146;28;20333;-78
2022/05/11 12:02:22;;;;;;;0.85;0.85;;;;;;;;;;5047974;28;20025;-81
2022/05/11 12:05:00;;;;;;;0.60;0.60;;;;;;;;;;5044984;28;20468;-79
2022/05/11 12:15:48;;;;;;;1.08;0.75;;;;;;;;;;5029653;28;20123;-81
2022/05/11 12:18:21;;;;;;;1.17;1.05;;;;;;;;;;5042096;28;20022;-81
2022/05/11 12:20:47;;;;;;;1.35;0.93;;;;;;;;;;5038234;28;20075;-81
2022/05/11 12:23:20;;;;;;;13.80;0.95;;;;;;;;;;5035934;28;20446;-80
2022/05/11 12:25:54;;;;;;;1.33;1.02;;;;;;;;;;5033600;28;20451;-81
2022/05/11 12:28:20;;;;;;;1.42;1.05;;;;;;;;;;5035695;28;20033;-79
2022/05/11 12:30:47;;;;;;;1.75;0.85;;;;;;;;;;5045377;28;20405;-81
2022/05/11 12:33:20;;;;;;;0.60;0.60;;;;;;;;;;5041896;28;20064;-80
2022/05/11 12:35:50;;;;;;;1.65;0.85;;;;;;;;;;5041863;28;20061;-78
2022/05/11 12:38:26;;;;;;;1.48;1.30;;;;;;;;;;5028226;28;20067;-80
2022/05/11 12:40:53;;;;;;;1.00;1.00;;;;;;;;;;5028453;28;20029;-78
2022/05/11 12:43:26;;;;;;;10.50;1.55;;;;;;;;;;5043191;28;20031;-79
2022/05/11 12:45:54;;;;;;;0.80;0.80;;;;;;;;;;5047019;28;20032;-79
2022/05/11 12:48:22;;;;;;;0.93;0.85;;;;;;;;;;5032027;28;20060;-80
2022/05/11 12:51:06;;;;;;;1.08;1.00;;;;;;;;;;5043180;28;20337;-78
2022/05/11 12:53:33;;;;;;;1.25;1.15;;;;;;;;;;5039107;28;20047;-80
2022/05/11 12:56:11;;;;;;;1.55;0.82;;;;;;;;;;5049706;28;20025;-79
2022/05/11 12:58:41;;;;;;;1.52;1.17;;;;;;;;;;5033165;28;20519;-79
2022/05/11 13:01:07;;;;;;;;;;;;;;;;;;5037054;28;20037;-80
2022/05/11 13:03:36;;;;;;;1.45;0.85;;;;;;;;;;5050856;28;19909;-80
2022/05/11 13:06:04;;;;;;;11.98;2.22;;;;;;;;;;5046917;28;20022;-82
2022/05/11 13:08:33;;;;;;;0.80;0.80;;;;;;;;;;5047043;28;20032;-80
2022/05/11 13:10:59;;;;;;;2.08;1.40;;;;;;;;;;5050305;28;20029;-79
2022/05/11 13:13:29;;;;;;;2.10;1.15;;;;;;;;;;5037352;28;20059;-80
2022/05/11 13:16:01;;;;;;;2.85;1.95;;;;;;;;;;5031578;28;20452;-79
2022/05/11 13:18:29;;;;;;;0.93;0.90;;;;;;;;;;5031849;28;20033;-79
2022/05/11 13:20:56;;;;;;;6.00;0.98;;;;;;;;;;5031321;28;20026;-78
2022/05/11 13:23:34;;;;;;;6.72;1.23;;;;;;;;;;5040368;28;20155;-79
2022/05/11 13:26:01;;;;;;;0.75;0.75;;;;;;;;;;5031896;28;20056;-78
2022/05/11 13:28:29;;;;;;;1.10;0.88;;;;;;;;;;5031695;28;20082;-78
2022/05/11 13:30:57;;;;;;;1.17;0.90;;;;;;;;;;5031698;28;20041;-79
2022/05/11 13:33:29;;;;;;;0.93;0.85;;;;;;;;;;5042038;28;20033;-79
2022/05/11 13:36:09;;;;;;;1.00;0.60;;;;;;;;;;5032107;28;20156;-78
2022/05/11 13:38:35;;;;;;;0.57;0.57;;;;;;;;;;5040810;28;20491;-80
2022/05/11 13:41:03;;;;;;;0.65;0.65;;;;;;;;;;5046294;28;20131;-82
2022/05/11 13:43:31;;;;;;;1.30;0.93;;;;;;;;;;5032542;28;20052;-81
2022/05/11 13:45:57;;;;;;;1.17;0.90;;;;;;;;;;5042554;28;20025;-84
2022/05/11 13:48:25;;;;;;;3.65;1.80;;;;;;;;;;5044658;28;20511;-83
2022/05/11 13:50:51;;;;;;;0.93;0.82;;;;;;;;;;5031354;28;20484;-86
2022/05/11 13:53:17;;;;;;;0.82;0.82;;;;;;;;;;5037957;28;20091;-81
2022/05/11 13:55:44;;;;;;;1.20;1.10;;;;;;;;;;5047886;28;20066;-81
2022/05/11 13:58:31;;;;;;;0.90;0.80;;;;;;;;;;5038670;28;20029;-80
2022/05/11 14:01:02;;;;;;;6.22;1.05;;;;;;;;;;5031647;28;20105;-80
2022/05/11 14:03:31;;;;;;;;;;;;;;;;;;5039377;28;20183;-77
2022/05/11 14:05:57;;;;;;;0.75;0.63;;;;;;;;;;5039522;28;19919;-80
2022/05/11 14:08:23;;;;;;;1.10;1.00;;;;;;;;;;5050597;28;20769;-79
2022/05/11 14:10:51;;;;;;;1.48;1.05;;;;;;;;;;5042642;28;20032;-79
2022/05/11 14:13:17;;;;;;;0.82;0.82;;;;;;;;;;5048787;28;20029;-81
2022/05/11 14:15:43;;;;;;;0.50;0.50;;;;;;;;;;5047578;28;20120;-80
2022/05/11 14:18:10;;;;;;;2.78;1.25;;;;;;;;;;5047716;28;20127;-82
2022/05/11 14:20:36;;;;;;;0.90;0.90;;;;;;;;;;5046457;28;20190;-82
2022/05/11 14:23:03;;;;;;;1.90;1.27;;;;;;;;;;5040515;28;20041;-82
2022/05/11 14:25:29;;;;;;;0.85;0.68;;;;;;;;;;5049794;28;20124;-78
2022/05/11 14:27:56;;;;;;;3.10;0.60;;;;;;;;;;5043756;28;20016;-79
2022/05/11 14:30:22;;;;;;;1.05;0.80;;;;;;;;;;5051105;28;20048;-80
2022/05/11 14:32:49;;;;;;;0.57;0.50;;;;;;;;;;5049164;28;20046;-80
2022/05/11 14:35:19;;;;;;;0.60;0.57;;;;;;;;;;5045703;28;20036;-80
2022/05/11 14:37:46;;;;;;;0.50;0.50;;;;;;;;;;5044032;28;20068;-78
2022/05/11 14:40:12;;;;;;;1.30;1.20;;;;;;;;;;5047616;28;20025;-76
2022/05/11 14:42:38;;;;;;;0.45;0.45;;;;;;;;;;5046379;28;20021;-82
2022/05/11 14:45:05;;;;;;;0.57;0.57;;;;;;;;;;5048794;28;20020;-79
2022/05/11 14:47:31;;;;;;;1.42;0.77;;;;;;;;;;5045870;28;20028;-80
2022/05/11 14:49:58;;;;;;;1.55;0.88;;;;;;;;;;5042595;28;20025;-77
2022/05/11 14:52:24;;;;;;;0.55;0.55;;;;;;;;;;5049397;28;20114;-77
2022/05/11 14:54:50;;;;;;;0.75;0.75;;;;;;;;;;5044754;28;20396;-75
2022/05/11 15:02:47;;;;;;;0.82;0.82;;;;;;;;;;5015895;28;20502;-76
2022/05/11 15:05:15;;;;;;;0.82;0.82;;;;;;;;;;5044047;28;20049;-76
2022/05/11 15:07:41;;;;;;;0.77;0.77;;;;;;;;;;5048103;28;20112;-77
2022/05/11 15:10:10;;;;;;;0.90;0.38;;;;;;;;;;5046841;28;20475;-77
2022/05/11 15:15:23;;;;;;;0.60;0.60;;;;;;;;;;5043254;28;20044;-76
2022/05/11 15:17:49;;;;;;;0.60;0.60;;;;;;;;;;5041107;28;20033;-77
2022/05/11 15:20:16;;;;;;;2.58;1.25;;;;;;;;;;5041035;28;20029;-78
2022/05/11 15:23:04;;;;;;;2.47;1.00;;;;;;;;;;5045504;28;20032;-80
2022/05/11 15:25:30;;;;;;;0.90;0.90;;;;;;;;;;5041439;28;20471;-79
2022/05/11 15:27:56;;;;;;;1.77;1.08;;;;;;;;;;5044022;28;20028;-80
2022/05/11 15:30:22;;;;;;;2.67;1.33;;;;;;;;;;5047277;28;20021;-77
2022/05/11 15:32:49;;;;;;;0.93;0.93;;;;;;;;;;5043229;28;20400;-78
2022/05/11 15:35:15;;;;;;;0.77;0.65;;;;;;;;;;5036702;28;20067;-81
2022/05/11 15:37:42;;;;;;;2.63;1.40;;;;;;;;;;5045166;28;20025;-78
2022/05/11 15:40:09;;;;;;;0.93;0.85;;;;;;;;;;5038047;28;20021;-79
2022/05/11 15:42:44;;;;;;;0.70;0.70;;;;;;;;;;5046764;28;20036;-77
2022/05/11 15:45:23;;;;;;;0.82;0.80;;;;;;;;;;5046386;28;20116;-78
2022/05/11 15:47:49;;;;;;;1.45;1.00;;;;;;;;;;5047868;28;20471;-78